メインページ
METAR-TAF:

METAR-TAF

空港 :

ジンナー国際空港

カラチ, パキスタン

緯度: 24-54N, 経度: 067-08E, 海抜: 21m

現時点の気象観測

当レポートは17分前の02:55(UTC)に作成
北/北西の風 6kt
気温 32°C
湿度 14%
気圧 1006 hPa
視程: 4000m
煙霧

METAR: OPKC 210255Z 33006KT 4000 HZ NSC 32/01 Q1006 NOSIG

時間: 08:12 (03:12 UTC)

予報

当レポートは5時間42分前の21:30(UTC)に作成
予報は21日の 00時(UTC)から 22日の 06時(UTC)まで有効
北/北西の風 12kt
視程: 4000m
煙霧
21日の 0800時(UTC)から
西の風 8kt、最大18ktの突風を伴う
視程: 6000m
21日の 1700時(UTC)から
北/北西の風 5kt、最大15ktの突風を伴う
視程: 4000m
煙霧

TAF: OPKC 202130Z 2100/2206 33012KT 4000 HZ NSC FM210800 26008G18KT 6000 NSC FM211700 33005G15KT 4000 HZ NSC

4,000以上の空港の気象観測と天気予報(METAR報とTAF報)

利用可能な観測所は地図上に黄色い丸と赤い丸で示す。

丸の上にカーソルを重ねると観測所名を参照できる。

次にクリックすると気象観測と天気予報を参照できる。

マップの切り替え:黒色「×」印の緑ボタンをクリックして拡大、「-」印の緑ボタンをクリックして縮小、緑色の三角印をクリックして隣りの地図に切り替え


METAR-TAF: